createdAt,value
2018-11-02T00:01:17.358Z,15.99
2018-11-02T00:03:45.101Z,15.98
2018-11-02T00:06:12.946Z,15.65
2018-11-02T00:08:40.695Z,15.78
2018-11-02T00:11:08.414Z,15.96
2018-11-02T00:13:36.134Z,15.99
2018-11-02T00:16:04.149Z,15.79
2018-11-02T00:18:31.910Z,15.91
2018-11-02T00:20:59.650Z,15.94
2018-11-02T00:23:27.429Z,15.95
2018-11-02T00:25:55.152Z,15.72
2018-11-02T00:28:22.878Z,15.56
2018-11-02T00:30:50.610Z,15.69
2018-11-02T00:33:18.330Z,15.75
2018-11-02T00:35:46.059Z,15.96
2018-11-02T00:38:13.783Z,15.91
2018-11-02T00:40:41.520Z,15.71
2018-11-02T00:43:09.269Z,15.57
2018-11-02T00:45:37.047Z,15.70
2018-11-02T00:48:05.136Z,15.58
2018-11-02T00:50:32.908Z,15.62
2018-11-02T00:53:00.635Z,15.91
2018-11-02T00:55:28.388Z,15.68
2018-11-02T00:57:56.172Z,15.62
2018-11-02T01:00:23.947Z,15.75
2018-11-02T01:02:51.694Z,15.83
2018-11-02T01:05:19.431Z,15.79
2018-11-02T01:07:47.233Z,15.82
2018-11-02T01:10:14.957Z,16.01
2018-11-02T01:12:42.702Z,15.79
2018-11-02T01:15:10.692Z,15.74
2018-11-02T01:17:38.487Z,15.89
2018-11-02T01:20:08.087Z,15.67
2018-11-02T01:22:35.811Z,15.79
2018-11-02T01:25:03.670Z,15.79
2018-11-02T01:27:31.425Z,15.53
2018-11-02T01:29:59.177Z,15.64
2018-11-02T01:32:26.914Z,15.68
2018-11-02T01:34:54.659Z,15.66
2018-11-02T01:37:22.422Z,15.76
2018-11-02T01:39:50.162Z,15.65
2018-11-02T01:42:17.898Z,15.49
2018-11-02T01:44:45.640Z,15.79
2018-11-02T01:47:13.462Z,15.61
2018-11-02T01:49:41.223Z,15.65
2018-11-02T01:52:08.988Z,15.71
2018-11-02T01:54:36.767Z,15.70
2018-11-02T01:57:04.684Z,15.41
2018-11-02T01:59:32.419Z,15.46
2018-11-02T02:02:00.157Z,15.67
2018-11-02T02:04:27.891Z,15.36
2018-11-02T02:06:55.647Z,15.45
2018-11-02T02:09:23.362Z,15.46
2018-11-02T02:11:51.098Z,15.63
2018-11-02T02:14:18.834Z,15.69
2018-11-02T02:16:46.566Z,15.85
2018-11-02T02:19:14.334Z,15.91
2018-11-02T02:21:42.071Z,15.88
2018-11-02T02:24:09.785Z,15.72
2018-11-02T02:26:37.508Z,15.84
2018-11-02T02:29:05.568Z,15.74
2018-11-02T02:31:33.322Z,15.61
2018-11-02T02:34:01.077Z,15.61
2018-11-02T02:36:28.812Z,15.66
2018-11-02T02:38:56.610Z,15.78
2018-11-02T02:41:24.367Z,15.72
2018-11-02T02:43:52.210Z,15.47
2018-11-02T02:46:19.945Z,15.59
2018-11-02T02:48:47.690Z,15.75
2018-11-02T02:51:15.441Z,15.68
2018-11-02T02:53:43.363Z,15.57
2018-11-02T02:56:11.085Z,15.67
2018-11-02T02:58:38.854Z,15.68
2018-11-02T03:01:06.612Z,15.40
2018-11-02T03:03:34.354Z,15.53
2018-11-02T03:06:02.090Z,15.73
2018-11-02T03:08:29.809Z,15.67
2018-11-02T03:10:57.673Z,15.56
2018-11-02T03:13:25.299Z,15.47
2018-11-02T03:15:53.036Z,15.60
2018-11-02T03:18:20.857Z,15.55
2018-11-02T03:20:48.531Z,15.31
2018-11-02T03:23:16.303Z,15.75
2018-11-02T03:25:44.031Z,15.54
2018-11-02T03:28:11.766Z,15.57
2018-11-02T03:30:39.502Z,15.68
2018-11-02T03:33:07.257Z,15.32
2018-11-02T03:35:34.977Z,15.06
2018-11-02T03:38:02.728Z,15.06
2018-11-02T03:40:30.460Z,15.17
2018-11-02T03:42:58.205Z,15.46
2018-11-02T03:45:25.939Z,15.04
2018-11-02T03:47:53.780Z,15.20
2018-11-02T03:50:21.846Z,15.28
2018-11-02T03:52:49.573Z,15.51
2018-11-02T03:55:17.350Z,15.62
2018-11-02T03:57:45.099Z,15.39
2018-11-02T04:00:13.339Z,15.51
2018-11-02T04:02:41.143Z,15.65
2018-11-02T04:05:09.746Z,15.40
2018-11-02T04:07:37.504Z,15.42
2018-11-02T04:10:06.672Z,15.46
2018-11-02T04:12:34.399Z,15.52
2018-11-02T04:15:02.213Z,15.57
2018-11-02T04:17:29.958Z,15.18
2018-11-02T04:19:57.739Z,15.43
2018-11-02T04:22:25.502Z,15.35
2018-11-02T04:24:53.286Z,15.35
2018-11-02T04:27:21.070Z,15.31
2018-11-02T04:29:48.819Z,15.20
2018-11-02T04:32:16.567Z,15.38
2018-11-02T04:34:44.318Z,15.42
2018-11-02T04:37:12.083Z,15.43
2018-11-02T04:39:39.800Z,15.32
2018-11-02T04:42:07.574Z,15.45
2018-11-02T04:44:35.294Z,15.32
2018-11-02T04:47:03.096Z,15.20
2018-11-02T04:49:30.843Z,15.31
2018-11-02T04:51:58.631Z,15.32
2018-11-02T04:54:26.402Z,15.26
2018-11-02T04:56:54.186Z,15.16
2018-11-02T04:59:22.010Z,15.45
2018-11-02T05:01:49.742Z,15.23
2018-11-02T05:04:17.470Z,15.13
2018-11-02T05:06:45.214Z,15.14
2018-11-02T05:09:12.942Z,15.23
2018-11-02T05:11:40.700Z,15.45
2018-11-02T05:14:08.922Z,15.30
2018-11-02T05:16:36.651Z,15.27
2018-11-02T05:19:04.591Z,15.36
2018-11-02T05:21:32.351Z,15.24
2018-11-02T05:24:00.080Z,15.19
2018-11-02T05:26:27.839Z,15.20
2018-11-02T05:28:55.558Z,15.16
2018-11-02T05:31:23.337Z,15.26
2018-11-02T05:33:51.074Z,15.31
2018-11-02T05:36:18.854Z,15.28
2018-11-02T05:38:46.615Z,15.24
2018-11-02T05:41:14.338Z,15.27
2018-11-02T05:43:42.098Z,15.43
2018-11-02T05:46:09.841Z,15.51
2018-11-02T05:48:37.576Z,15.66
2018-11-02T05:51:05.361Z,15.38
2018-11-02T05:53:33.141Z,15.39
2018-11-02T05:56:00.987Z,15.48
2018-11-02T05:58:28.856Z,15.47
2018-11-02T06:00:56.643Z,15.28
2018-11-02T06:03:24.365Z,15.41
2018-11-02T06:05:52.095Z,15.37
2018-11-02T06:08:19.843Z,15.45
2018-11-02T06:10:47.577Z,15.42
2018-11-02T06:13:15.517Z,15.42
2018-11-02T06:15:43.406Z,15.47
2018-11-02T06:18:11.434Z,15.40
2018-11-02T06:20:39.194Z,15.46
2018-11-02T06:23:06.966Z,15.45
2018-11-02T06:25:34.768Z,15.34
2018-11-02T06:28:02.543Z,15.43
2018-11-02T06:30:30.308Z,15.48
2018-11-02T06:32:58.023Z,15.55
2018-11-02T06:35:25.912Z,15.38
2018-11-02T06:37:53.691Z,15.48
2018-11-02T06:40:21.453Z,15.46
2018-11-02T06:42:49.223Z,15.43
2018-11-02T06:45:16.992Z,15.45
2018-11-02T06:47:44.771Z,15.59
2018-11-02T06:50:12.530Z,15.65
2018-11-02T06:52:40.270Z,15.59
2018-11-02T06:55:08.940Z,15.58
2018-11-02T06:57:36.700Z,15.71
2018-11-02T07:00:07.568Z,15.77
2018-11-02T07:02:34.955Z,15.88
2018-11-02T07:05:02.723Z,15.60
2018-11-02T07:07:30.507Z,15.70
2018-11-02T07:09:58.118Z,15.61
2018-11-02T07:12:25.814Z,15.56
2018-11-02T07:14:53.556Z,15.51
2018-11-02T07:17:21.307Z,15.71
2018-11-02T07:19:48.998Z,15.73
2018-11-02T07:22:16.699Z,15.68
2018-11-02T07:24:44.414Z,16.05
2018-11-02T07:27:12.105Z,15.80
2018-11-02T07:29:39.845Z,15.85
2018-11-02T07:32:07.593Z,15.88
2018-11-02T07:34:37.101Z,15.80
2018-11-02T07:37:04.944Z,15.83
2018-11-02T07:39:33.727Z,15.86
2018-11-02T07:42:01.894Z,16.05
2018-11-02T07:44:29.702Z,15.90
2018-11-02T07:46:58.163Z,15.90
2018-11-02T07:49:26.221Z,15.68
2018-11-02T07:51:53.966Z,15.83
2018-11-02T07:54:21.971Z,15.79
2018-11-02T07:56:49.738Z,15.89
2018-11-02T07:59:17.483Z,15.94
2018-11-02T08:01:45.787Z,15.92
2018-11-02T08:04:13.499Z,15.69
2018-11-02T08:06:41.217Z,15.98
2018-11-02T08:09:10.974Z,15.94
2018-11-02T08:11:38.775Z,15.79
2018-11-02T08:14:06.652Z,15.72
2018-11-02T08:16:34.579Z,15.72
2018-11-02T08:19:16.267Z,15.85
2018-11-02T08:22:15.231Z,15.87
2018-11-02T08:39:08.025Z,15.93
2018-11-02T08:41:36.218Z,15.88
2018-11-02T08:44:04.061Z,15.86
2018-11-02T08:46:31.825Z,15.83
2018-11-02T08:48:59.507Z,16.01
2018-11-02T08:51:27.241Z,16.13
2018-11-02T08:53:54.935Z,16.08
2018-11-02T08:56:22.645Z,16.26
2018-11-02T08:58:52.558Z,16.19
2018-11-02T09:01:20.338Z,16.39
2018-11-02T09:03:48.027Z,16.35
2018-11-02T09:06:15.698Z,16.35
2018-11-02T09:08:43.382Z,16.47
2018-11-02T09:11:11.143Z,16.51
2018-11-02T09:13:38.876Z,16.57
2018-11-02T09:16:06.637Z,16.43
2018-11-02T09:18:34.429Z,16.46
2018-11-02T09:21:02.168Z,16.42
2018-11-02T09:23:29.960Z,16.26
2018-11-02T09:25:57.711Z,16.31
2018-11-02T09:28:25.516Z,16.61
2018-11-02T09:30:53.262Z,16.63
2018-11-02T09:33:21.047Z,16.58
2018-11-02T09:35:48.778Z,16.75
2018-11-02T09:38:16.502Z,16.69
2018-11-02T09:40:44.259Z,16.53
2018-11-02T09:43:12.282Z,16.52
2018-11-02T09:45:40.130Z,16.69
2018-11-02T09:48:07.854Z,16.63
2018-11-02T09:50:35.683Z,16.85
2018-11-02T09:53:03.571Z,16.61
2018-11-02T09:55:31.334Z,16.61
2018-11-02T09:57:59.127Z,16.70
2018-11-02T10:00:26.926Z,16.79
2018-11-02T10:02:54.738Z,16.72
2018-11-02T10:05:22.588Z,16.67
2018-11-02T10:07:50.413Z,16.79
2018-11-02T10:10:18.207Z,16.71
2018-11-02T10:12:45.987Z,16.94
2018-11-02T10:15:14.859Z,16.93
2018-11-02T10:17:42.709Z,17.03
2018-11-02T10:20:11.129Z,16.84
2018-11-02T10:22:38.973Z,16.81
2018-11-02T10:25:07.449Z,17.05
2018-11-02T10:27:35.822Z,16.89
2018-11-02T10:30:03.971Z,16.89
2018-11-02T10:32:31.888Z,17.14
2018-11-02T10:35:00.350Z,17.29
2018-11-02T10:37:28.244Z,17.07
2018-11-02T10:39:56.177Z,17.20
2018-11-02T10:42:24.085Z,17.14
2018-11-02T10:44:52.091Z,16.97
2018-11-02T10:47:20.363Z,16.94
2018-11-02T10:49:48.130Z,17.04
2018-11-02T10:52:15.887Z,17.31
2018-11-02T10:54:43.716Z,17.36
2018-11-02T10:57:11.434Z,17.39
2018-11-02T10:59:39.219Z,17.55
2018-11-02T11:02:13.338Z,17.39
2018-11-02T11:04:41.138Z,17.30
2018-11-02T11:07:08.895Z,17.38
2018-11-02T11:09:36.762Z,17.25
2018-11-02T11:12:04.641Z,17.39
2018-11-02T11:14:32.321Z,17.52
2018-11-02T11:17:00.106Z,17.38
2018-11-02T11:19:28.552Z,17.41
2018-11-02T11:21:56.350Z,17.39
2018-11-02T11:24:24.116Z,17.66
2018-11-02T11:26:51.894Z,17.59
2018-11-02T11:29:19.711Z,17.65
2018-11-02T11:31:47.471Z,17.68
2018-11-02T11:34:15.318Z,17.62
2018-11-02T11:36:43.123Z,17.69
2018-11-02T11:39:12.614Z,17.72
2018-11-02T11:41:40.398Z,17.66
2018-11-02T11:44:08.206Z,17.62
2018-11-02T11:46:36.031Z,17.40
2018-11-02T11:49:04.387Z,17.46
2018-11-02T11:51:32.180Z,17.56
2018-11-02T11:53:59.986Z,17.65
2018-11-02T11:56:27.758Z,17.74
2018-11-02T11:58:55.558Z,17.77
2018-11-02T12:01:23.430Z,17.85
2018-11-02T12:03:51.201Z,17.76
2018-11-02T12:06:19.011Z,17.78
2018-11-02T12:08:46.823Z,17.76
2018-11-02T12:11:14.613Z,17.74
2018-11-02T12:13:42.446Z,17.76
2018-11-02T12:16:10.257Z,17.82
2018-11-02T12:18:38.010Z,17.82
2018-11-02T12:21:06.202Z,17.91
2018-11-02T12:23:34.083Z,17.88
2018-11-02T12:26:01.864Z,17.93
2018-11-02T12:28:29.658Z,17.95
2018-11-02T12:30:57.419Z,17.98
2018-11-02T12:33:25.450Z,17.99
2018-11-02T12:35:53.203Z,18.05
2018-11-02T12:38:20.946Z,18.01
2018-11-02T12:40:48.711Z,17.98
2018-11-02T12:43:17.582Z,18.01
2018-11-02T12:45:45.313Z,18.05
2018-11-02T12:48:13.073Z,18.03
2018-11-02T12:50:40.941Z,18.01
2018-11-02T12:53:08.664Z,18.07
2018-11-02T12:55:36.418Z,18.11
2018-11-02T12:58:04.311Z,18.13
2018-11-02T13:00:32.057Z,18.18
2018-11-02T13:02:59.842Z,18.18
2018-11-02T13:05:28.634Z,18.21
2018-11-02T13:07:56.359Z,18.19
2018-11-02T13:10:24.189Z,18.17
2018-11-02T13:12:51.978Z,18.21
2018-11-02T13:15:21.850Z,18.25
2018-11-02T13:17:49.926Z,18.22
2018-11-02T13:20:17.789Z,18.21
2018-11-02T13:22:46.571Z,18.19
2018-11-02T13:25:15.716Z,18.22
2018-11-02T13:27:43.936Z,18.24
2018-11-02T13:30:11.946Z,18.25
2018-11-02T13:32:39.883Z,18.23
2018-11-02T13:35:10.100Z,18.28
2018-11-02T13:37:37.875Z,18.32
2018-11-02T13:40:07.070Z,18.29
2018-11-02T13:42:34.857Z,18.29
2018-11-02T13:45:02.733Z,18.35
2018-11-02T13:47:30.490Z,18.35
2018-11-02T13:49:58.334Z,18.34
2018-11-02T13:52:26.133Z,18.39
2018-11-02T13:54:53.895Z,18.34
2018-11-02T13:57:21.683Z,18.33
2018-11-02T13:59:49.445Z,18.33
2018-11-02T14:02:17.209Z,18.31
2018-11-02T14:04:44.986Z,18.34
2018-11-02T14:07:12.753Z,18.26
2018-11-02T14:09:40.474Z,18.23
2018-11-02T14:12:08.292Z,18.18
2018-11-02T14:14:36.051Z,18.21
2018-11-02T14:17:04.753Z,18.20
2018-11-02T14:19:32.506Z,18.19
2018-11-02T14:22:00.271Z,18.19
2018-11-02T14:24:28.030Z,18.06
2018-11-02T14:26:55.786Z,18.18
2018-11-02T14:29:23.600Z,18.15
2018-11-02T14:31:51.327Z,18.07
2018-11-02T14:34:19.074Z,17.96
2018-11-02T14:36:46.826Z,17.94
2018-11-02T14:39:14.962Z,17.95
2018-11-02T14:41:43.812Z,17.88
2018-11-02T14:44:11.575Z,17.80
2018-11-02T14:46:39.722Z,17.77
2018-11-02T14:49:07.545Z,17.76
2018-11-02T14:51:35.554Z,17.72
2018-11-02T14:54:03.386Z,17.70
2018-11-02T14:56:31.150Z,17.61
2018-11-02T14:58:59.388Z,17.58
2018-11-02T15:01:27.655Z,17.59
2018-11-02T15:03:55.460Z,17.48
2018-11-02T15:06:23.224Z,17.39
2018-11-02T15:08:50.986Z,17.44
2018-11-02T15:11:18.835Z,17.38
2018-11-02T15:13:46.612Z,17.29
2018-11-02T15:16:14.489Z,17.19
2018-11-02T15:18:42.241Z,17.15
2018-11-02T15:21:10.014Z,17.20
2018-11-02T15:23:37.771Z,17.09
2018-11-02T15:26:05.874Z,17.06
2018-11-02T15:28:33.637Z,16.99
2018-11-02T15:31:01.413Z,16.95
2018-11-02T15:33:29.159Z,16.92
2018-11-02T15:35:56.917Z,16.87
2018-11-02T15:38:24.734Z,16.91
2018-11-02T15:40:52.462Z,16.91
2018-11-02T15:43:20.227Z,16.83
2018-11-02T15:45:47.958Z,16.69
2018-11-02T15:48:15.826Z,16.56
2018-11-02T15:50:43.596Z,16.60
2018-11-02T15:53:11.372Z,16.56
2018-11-02T15:55:39.102Z,16.63
2018-11-02T15:58:06.864Z,16.43
2018-11-02T16:00:34.674Z,16.42
2018-11-02T16:03:02.401Z,16.43
2018-11-02T16:05:30.154Z,16.43
2018-11-02T16:07:57.930Z,16.29
2018-11-02T16:10:25.683Z,16.24
2018-11-02T16:12:59.986Z,16.26
2018-11-02T16:15:27.743Z,16.18
2018-11-02T16:17:55.495Z,16.21
2018-11-02T16:20:23.330Z,16.12
2018-11-02T16:22:51.388Z,16.06
2018-11-02T16:25:19.191Z,16.02
2018-11-02T16:27:46.936Z,16.07
2018-11-02T16:30:14.716Z,16.03
2018-11-02T16:32:42.439Z,15.98
2018-11-02T16:35:10.816Z,15.83
2018-11-02T16:37:38.554Z,15.74
2018-11-02T16:40:08.923Z,15.73
2018-11-02T16:42:36.666Z,15.68
2018-11-02T16:45:05.414Z,15.80
2018-11-02T16:47:33.191Z,15.71
2018-11-02T16:50:00.946Z,15.69
2018-11-02T16:52:28.716Z,15.80
2018-11-02T16:54:56.478Z,15.76
2018-11-02T16:57:24.360Z,15.79
2018-11-02T16:59:52.252Z,15.68
2018-11-02T17:02:20.014Z,15.59
2018-11-02T17:04:47.842Z,15.54
2018-11-02T17:07:15.543Z,15.56
2018-11-02T17:09:43.271Z,15.51
2018-11-02T17:12:11.048Z,15.63
2018-11-02T17:14:38.841Z,15.72
2018-11-02T17:17:06.554Z,15.67
2018-11-02T17:19:34.298Z,15.65
2018-11-02T17:22:02.057Z,15.68
2018-11-02T17:24:29.810Z,15.73
2018-11-02T17:26:57.566Z,15.71
2018-11-02T17:29:25.315Z,15.70
2018-11-02T17:31:53.098Z,15.76
2018-11-02T17:34:20.849Z,15.75
2018-11-02T17:36:48.612Z,15.71
2018-11-02T17:39:16.358Z,15.74
2018-11-02T17:41:44.112Z,15.70
2018-11-02T17:44:11.883Z,15.79
2018-11-02T17:46:39.642Z,15.74
2018-11-02T17:49:07.382Z,15.53
2018-11-02T17:51:35.137Z,15.54
2018-11-02T17:54:02.898Z,15.47
2018-11-02T17:56:30.633Z,15.49
2018-11-02T17:58:58.380Z,15.46
2018-11-02T18:01:26.202Z,15.41
2018-11-02T18:03:53.944Z,15.42
2018-11-02T18:06:21.711Z,15.50
2018-11-02T18:08:49.471Z,15.32
2018-11-02T18:11:17.269Z,15.30
2018-11-02T18:13:45.182Z,15.31
2018-11-02T18:16:12.974Z,15.21
2018-11-02T18:18:41.111Z,15.29
2018-11-02T18:21:08.832Z,15.25
2018-11-02T18:23:36.561Z,15.33
2018-11-02T18:26:04.923Z,15.18
2018-11-02T18:28:32.678Z,15.15
2018-11-02T18:31:00.454Z,15.09
2018-11-02T18:33:28.250Z,15.01
2018-11-02T18:35:56.014Z,15.02
2018-11-02T18:38:23.747Z,14.94
2018-11-02T18:40:51.502Z,14.92
2018-11-02T18:43:19.227Z,14.91
2018-11-02T18:45:46.962Z,14.98
2018-11-02T18:48:14.816Z,14.98
2018-11-02T18:50:42.472Z,14.79
2018-11-02T18:53:10.335Z,14.78
2018-11-02T18:55:38.075Z,14.69
2018-11-02T18:58:06.205Z,14.62
2018-11-02T19:00:33.840Z,14.50
2018-11-02T19:03:01.667Z,14.43
2018-11-02T19:05:29.474Z,14.46
2018-11-02T19:07:57.162Z,14.49
2018-11-02T19:10:24.934Z,14.65
2018-11-02T19:12:52.689Z,14.65
2018-11-02T19:15:20.454Z,14.43
2018-11-02T19:17:48.227Z,14.42
2018-11-02T19:20:16.316Z,14.60
2018-11-02T19:22:44.167Z,14.52
2018-11-02T19:25:13.007Z,14.49
2018-11-02T19:27:40.867Z,14.57
2018-11-02T19:30:10.439Z,14.41
2018-11-02T19:32:38.308Z,14.38
2018-11-02T19:35:06.823Z,14.42
2018-11-02T19:37:34.523Z,14.35
2018-11-02T19:40:02.339Z,14.67
2018-11-02T19:42:30.102Z,14.48
2018-11-02T19:44:57.988Z,14.37
2018-11-02T19:47:31.297Z,14.51
2018-11-02T19:49:59.055Z,14.34
2018-11-02T19:52:26.814Z,14.31
2018-11-02T19:54:54.578Z,14.38
2018-11-02T19:57:22.447Z,14.26
2018-11-02T19:59:50.154Z,14.34
2018-11-02T20:02:17.911Z,14.41
2018-11-02T20:04:45.648Z,14.54
2018-11-02T20:07:13.378Z,14.46
2018-11-02T20:09:41.107Z,14.52
2018-11-02T20:12:08.854Z,14.56
2018-11-02T20:14:36.619Z,14.53
2018-11-02T20:17:04.442Z,14.50
2018-11-02T20:19:32.198Z,14.39
2018-11-02T20:21:59.954Z,14.39
2018-11-02T20:24:27.722Z,14.28
2018-11-02T20:26:55.491Z,14.44
2018-11-02T20:29:23.224Z,14.53
2018-11-02T20:31:51.096Z,14.35
2018-11-02T20:34:18.939Z,14.23
2018-11-02T20:36:46.683Z,14.06
2018-11-02T20:39:14.526Z,14.13
2018-11-02T20:41:42.214Z,13.96
2018-11-02T20:44:10.295Z,13.93
2018-11-02T20:46:38.051Z,14.00
2018-11-02T20:49:05.946Z,14.09
2018-11-02T20:51:33.760Z,14.13
2018-11-02T20:54:01.552Z,14.20
2018-11-02T20:56:29.374Z,14.21
2018-11-02T20:58:57.127Z,14.22
2018-11-02T21:01:24.879Z,14.11
2018-11-02T21:03:52.695Z,13.74
2018-11-02T21:06:20.469Z,14.02
2018-11-02T21:08:48.287Z,13.98
2018-11-02T21:11:15.986Z,14.06
2018-11-02T21:13:43.755Z,14.11
2018-11-02T21:16:11.527Z,14.10
2018-11-02T21:18:39.310Z,14.01
2018-11-02T21:21:07.099Z,14.09
2018-11-02T21:23:34.781Z,13.90
2018-11-02T21:26:02.526Z,13.86
2018-11-02T21:28:30.287Z,13.65
2018-11-02T21:30:58.035Z,13.85
2018-11-02T21:33:25.782Z,13.73
2018-11-02T21:35:53.522Z,13.68
2018-11-02T21:38:21.382Z,13.68
2018-11-02T21:40:49.052Z,13.42
2018-11-02T21:43:16.795Z,13.42
2018-11-02T21:45:44.579Z,13.39
2018-11-02T21:48:12.991Z,13.37
2018-11-02T21:50:40.758Z,13.30
2018-11-02T21:53:08.482Z,13.24
2018-11-02T21:55:36.222Z,13.31
2018-11-02T21:58:04.046Z,13.32
2018-11-02T22:00:31.828Z,13.22
2018-11-02T22:02:59.586Z,13.19
2018-11-02T22:05:27.321Z,13.28
2018-11-02T22:07:55.061Z,13.40
2018-11-02T22:10:22.799Z,13.13
2018-11-02T22:12:50.539Z,13.23
2018-11-02T22:15:18.270Z,13.23
2018-11-02T22:17:46.014Z,13.29
2018-11-02T22:20:14.606Z,13.46
2018-11-02T22:22:42.410Z,13.48
2018-11-02T22:25:11.117Z,13.60
2018-11-02T22:27:38.869Z,13.35
2018-11-02T22:30:09.030Z,13.54
2018-11-02T22:32:36.780Z,13.42
2018-11-02T22:35:04.706Z,13.46
2018-11-02T22:37:32.492Z,13.66
2018-11-02T22:40:00.224Z,13.47
2018-11-02T22:42:27.956Z,13.56
2018-11-02T22:44:55.730Z,13.68
2018-11-02T22:47:23.470Z,13.78
2018-11-02T22:49:51.198Z,13.79
2018-11-02T22:52:19.206Z,13.69
2018-11-02T22:54:46.986Z,13.65
2018-11-02T22:57:14.796Z,13.80
2018-11-02T22:59:42.757Z,13.71
2018-11-02T23:02:10.514Z,13.72
2018-11-02T23:04:38.270Z,13.74
2018-11-02T23:07:06.158Z,13.65
2018-11-02T23:09:33.974Z,13.79
2018-11-02T23:12:01.718Z,13.74
2018-11-02T23:14:29.454Z,13.70
2018-11-02T23:16:57.351Z,13.93
2018-11-02T23:19:25.104Z,13.79
2018-11-02T23:21:52.873Z,13.90
2018-11-02T23:24:20.614Z,13.84
2018-11-02T23:26:48.373Z,13.80
2018-11-02T23:29:16.120Z,13.76
2018-11-02T23:31:43.883Z,13.77
2018-11-02T23:34:11.704Z,13.77
2018-11-02T23:36:39.502Z,13.78
2018-11-02T23:39:07.938Z,13.65
2018-11-02T23:41:35.711Z,13.84
2018-11-02T23:44:03.637Z,13.85
2018-11-02T23:46:31.407Z,13.75
2018-11-02T23:48:59.180Z,13.81
2018-11-02T23:51:26.943Z,13.81
2018-11-02T23:53:54.735Z,13.80
2018-11-02T23:56:22.509Z,14.07
2018-11-02T23:58:50.238Z,14.10
